createdAt,value
2019-03-31T00:00:06.557Z,27.93
2019-03-31T00:02:35.074Z,27.67
2019-03-31T00:05:04.081Z,27.23
2019-03-31T00:07:32.522Z,26.67
2019-03-31T00:10:01.001Z,26.13
2019-03-31T00:12:29.463Z,25.27
2019-03-31T00:14:57.900Z,26.13
2019-03-31T00:17:26.342Z,26.53
2019-03-31T00:19:54.818Z,26.43
2019-03-31T00:22:23.247Z,27.90
2019-03-31T00:24:53.388Z,26.73
2019-03-31T00:27:21.885Z,26.80
2019-03-31T00:29:50.363Z,25.87
2019-03-31T00:32:18.847Z,27.10
2019-03-31T00:34:47.307Z,28.03
2019-03-31T00:37:15.745Z,29.03
2019-03-31T00:39:44.185Z,27.07
2019-03-31T00:42:12.759Z,29.90
2019-03-31T00:44:41.191Z,27.63
2019-03-31T00:47:09.662Z,29.70
2019-03-31T00:49:38.149Z,30.53
2019-03-31T00:52:06.632Z,28.17
2019-03-31T00:54:35.069Z,31.80
2019-03-31T00:57:03.581Z,30.33
2019-03-31T00:59:32.034Z,30.93
2019-03-31T01:02:02.454Z,30.67
2019-03-31T01:04:33.463Z,31.37
2019-03-31T01:07:02.193Z,31.17
2019-03-31T01:09:32.985Z,32.97
2019-03-31T01:12:04.237Z,35.33
2019-03-31T01:14:33.306Z,35.73
2019-03-31T01:17:03.304Z,34.33
2019-03-31T01:19:31.809Z,34.33
2019-03-31T01:22:00.223Z,34.80
2019-03-31T01:24:28.763Z,36.40
2019-03-31T01:26:57.266Z,34.73
2019-03-31T01:29:25.914Z,34.53
2019-03-31T01:31:56.053Z,34.60
2019-03-31T01:34:25.145Z,35.53
2019-03-31T01:36:53.683Z,35.07
2019-03-31T01:39:24.380Z,35.47
2019-03-31T01:41:52.999Z,36.13
2019-03-31T01:44:21.608Z,36.10
2019-03-31T01:46:50.024Z,36.23
2019-03-31T01:49:18.469Z,37.23
2019-03-31T01:51:47.028Z,37.80
2019-03-31T01:54:15.468Z,37.30
2019-03-31T01:56:44.921Z,36.37
2019-03-31T01:59:13.610Z,35.90
2019-03-31T02:01:42.133Z,36.60
2019-03-31T02:04:10.577Z,37.40
2019-03-31T02:06:39.112Z,38.30
2019-03-31T02:09:07.631Z,38.10
2019-03-31T02:11:36.064Z,38.17
2019-03-31T02:14:04.662Z,37.23
2019-03-31T02:16:33.196Z,38.47
2019-03-31T02:19:01.651Z,40.23
2019-03-31T02:21:30.089Z,38.93
2019-03-31T02:23:58.529Z,38.07
2019-03-31T02:26:26.992Z,40.77
2019-03-31T02:28:55.515Z,38.10
2019-03-31T02:31:23.987Z,39.33
2019-03-31T02:33:52.424Z,38.43
2019-03-31T02:36:20.873Z,39.33
2019-03-31T02:38:49.325Z,41.13
2019-03-31T02:41:17.753Z,42.30
2019-03-31T02:43:46.210Z,40.40
2019-03-31T02:46:14.653Z,39.77
2019-03-31T02:48:43.125Z,42.17
2019-03-31T02:51:11.629Z,42.60
2019-03-31T02:53:40.212Z,43.33
2019-03-31T02:56:09.692Z,41.50
2019-03-31T02:58:38.211Z,43.87
2019-03-31T03:01:07.903Z,43.27
2019-03-31T03:03:39.384Z,42.87
2019-03-31T03:06:10.181Z,42.40
2019-03-31T03:08:41.338Z,42.10
2019-03-31T03:11:12.907Z,43.90
2019-03-31T03:13:43.635Z,42.43
2019-03-31T03:16:21.251Z,43.53
2019-03-31T03:18:50.413Z,44.63
2019-03-31T03:21:23.668Z,43.93
2019-03-31T03:23:49.626Z,43.03
2019-03-31T03:26:18.512Z,44.83
2019-03-31T03:28:47.355Z,43.23
2019-03-31T03:31:17.339Z,44.43
2019-03-31T03:33:46.199Z,43.33
2019-03-31T03:36:15.580Z,42.70
2019-03-31T03:38:44.181Z,42.57
2019-03-31T03:41:12.633Z,43.53
2019-03-31T03:43:55.061Z,42.97
2019-03-31T03:46:11.237Z,44.60
2019-03-31T03:48:39.706Z,44.70
2019-03-31T03:51:08.173Z,42.17
2019-03-31T03:53:36.624Z,44.10
2019-03-31T03:56:05.163Z,43.97
2019-03-31T03:58:33.676Z,43.87
2019-03-31T04:01:02.647Z,44.47
2019-03-31T04:03:31.350Z,44.37
2019-03-31T04:05:59.945Z,46.37
2019-03-31T04:08:28.421Z,44.17
2019-03-31T04:11:12.314Z,44.63
2019-03-31T04:13:40.782Z,46.50
2019-03-31T04:16:09.369Z,43.27
2019-03-31T04:18:37.887Z,45.87
2019-03-31T04:21:06.501Z,44.67
2019-03-31T04:23:34.960Z,45.10
2019-03-31T04:26:03.433Z,45.17
2019-03-31T04:28:31.888Z,43.50
2019-03-31T04:31:00.346Z,43.70
2019-03-31T04:33:48.417Z,41.83
2019-03-31T04:35:59.002Z,43.90
2019-03-31T04:38:27.446Z,43.10
2019-03-31T04:40:55.983Z,43.47
2019-03-31T04:43:24.435Z,43.47
2019-03-31T04:45:55.296Z,40.37
2019-03-31T04:48:23.742Z,42.53
2019-03-31T04:50:52.387Z,42.37
2019-03-31T04:53:20.984Z,41.67
2019-03-31T04:55:49.426Z,41.07
2019-03-31T04:58:17.882Z,42.93
2019-03-31T05:00:46.334Z,39.60
2019-03-31T05:03:14.796Z,40.23
2019-03-31T05:05:43.271Z,42.07
2019-03-31T05:08:11.727Z,40.70
2019-03-31T05:10:40.179Z,37.07
2019-03-31T05:13:08.639Z,38.77
2019-03-31T05:15:37.094Z,37.87
2019-03-31T05:18:05.566Z,36.77
2019-03-31T05:20:34.020Z,38.50
2019-03-31T05:23:02.553Z,37.03
2019-03-31T05:25:31.893Z,37.27
2019-03-31T05:28:00.365Z,37.90
2019-03-31T05:30:28.810Z,37.10
2019-03-31T05:32:57.255Z,37.17
2019-03-31T05:35:27.158Z,37.10
2019-03-31T05:37:55.868Z,36.53
2019-03-31T05:40:24.315Z,37.07
2019-03-31T05:42:52.823Z,37.43
2019-03-31T05:45:21.247Z,36.60
2019-03-31T05:47:49.725Z,35.17
2019-03-31T05:50:18.193Z,36.67
2019-03-31T05:52:46.616Z,35.07
2019-03-31T05:55:15.093Z,36.30
2019-03-31T05:57:43.592Z,38.20
2019-03-31T06:00:12.138Z,36.17
2019-03-31T06:02:40.591Z,36.17
2019-03-31T06:05:09.032Z,36.23
2019-03-31T06:07:37.598Z,36.83
2019-03-31T06:10:07.515Z,36.50
2019-03-31T06:12:35.988Z,36.27
2019-03-31T06:15:05.378Z,34.40
2019-03-31T06:17:33.855Z,33.83
2019-03-31T06:20:02.355Z,33.47
2019-03-31T06:22:30.837Z,35.20
2019-03-31T06:24:59.276Z,32.93
2019-03-31T06:27:27.745Z,34.70
2019-03-31T06:29:56.215Z,32.77
2019-03-31T06:32:24.853Z,36.40
2019-03-31T06:34:53.305Z,34.27
2019-03-31T06:37:21.765Z,34.47
2019-03-31T06:39:50.200Z,34.60
2019-03-31T06:42:18.749Z,33.20
2019-03-31T06:44:47.176Z,33.63
2019-03-31T06:47:15.621Z,32.97
2019-03-31T06:49:44.092Z,33.77
2019-03-31T06:52:12.544Z,32.50
2019-03-31T06:54:40.984Z,31.63
2019-03-31T06:57:09.448Z,35.13
2019-03-31T06:59:37.878Z,31.77
2019-03-31T07:02:06.328Z,32.03
2019-03-31T07:04:34.795Z,33.37
2019-03-31T07:07:03.334Z,32.63
2019-03-31T07:09:31.817Z,30.63
2019-03-31T07:12:00.463Z,29.33
2019-03-31T07:14:29.385Z,31.53
2019-03-31T07:16:57.930Z,29.60
2019-03-31T07:19:29.123Z,29.10
2019-03-31T07:21:58.048Z,27.97
2019-03-31T07:24:26.811Z,25.57
2019-03-31T07:26:55.398Z,24.87
2019-03-31T07:29:23.889Z,26.40
2019-03-31T07:31:52.600Z,27.07
2019-03-31T07:34:21.332Z,25.10
2019-03-31T07:36:49.948Z,24.03
2019-03-31T07:39:18.954Z,23.83
2019-03-31T07:41:49.650Z,24.10
2019-03-31T07:44:18.361Z,22.27
2019-03-31T07:46:47.659Z,21.27
2019-03-31T07:49:16.100Z,20.20
2019-03-31T07:51:46.116Z,19.97
2019-03-31T07:54:14.597Z,18.47
2019-03-31T07:56:43.094Z,17.73
2019-03-31T07:59:11.555Z,17.97
2019-03-31T08:01:39.976Z,15.97
2019-03-31T08:04:08.412Z,15.97
2019-03-31T08:06:36.865Z,16.53
2019-03-31T08:09:07.164Z,14.83
2019-03-31T08:11:35.976Z,15.33
2019-03-31T08:14:04.391Z,14.00
2019-03-31T08:16:32.860Z,12.93
2019-03-31T08:19:02.943Z,13.70
2019-03-31T08:21:31.371Z,13.93
2019-03-31T08:24:00.096Z,14.27
2019-03-31T08:26:28.660Z,13.60
2019-03-31T08:28:58.651Z,12.80
2019-03-31T08:31:27.261Z,12.20
2019-03-31T08:33:56.076Z,12.27
2019-03-31T08:36:24.585Z,10.73
2019-03-31T08:38:54.057Z,7.33
2019-03-31T08:41:25.201Z,9.77
2019-03-31T08:43:53.681Z,12.43
2019-03-31T08:46:22.295Z,11.63
2019-03-31T08:48:50.728Z,10.83
2019-03-31T08:51:19.434Z,8.77
2019-03-31T08:53:47.997Z,7.13
2019-03-31T08:56:16.500Z,5.67
2019-03-31T08:58:44.976Z,6.10
2019-03-31T09:01:15.044Z,6.77
2019-03-31T09:03:43.499Z,6.20
2019-03-31T09:06:11.921Z,5.53
2019-03-31T09:08:40.428Z,5.70
2019-03-31T09:11:08.895Z,6.07
2019-03-31T09:13:37.339Z,6.00
2019-03-31T09:16:05.888Z,4.10
2019-03-31T09:18:34.352Z,3.00
2019-03-31T09:21:02.782Z,2.80
2019-03-31T09:23:31.255Z,2.17
2019-03-31T09:25:59.674Z,1.50
2019-03-31T09:28:28.407Z,1.90
2019-03-31T09:30:56.867Z,2.23
2019-03-31T09:33:25.297Z,2.37
2019-03-31T09:35:53.742Z,2.33
2019-03-31T09:38:22.230Z,2.50
2019-03-31T09:40:50.688Z,2.83
2019-03-31T09:43:19.173Z,3.30
2019-03-31T09:45:47.586Z,3.80
2019-03-31T09:48:16.011Z,2.87
2019-03-31T09:50:44.532Z,3.97
2019-03-31T09:53:12.943Z,4.30
2019-03-31T09:55:41.478Z,4.23
2019-03-31T09:58:09.916Z,5.13
2019-03-31T10:00:50.138Z,5.27
2019-03-31T10:03:18.911Z,5.37
2019-03-31T10:05:48.147Z,6.63
2019-03-31T10:08:17.464Z,6.17
2019-03-31T10:10:46.019Z,5.90
2019-03-31T10:13:14.507Z,6.07
2019-03-31T10:15:42.941Z,6.67
2019-03-31T10:18:11.403Z,6.37
2019-03-31T10:20:39.841Z,5.40
2019-03-31T10:23:08.368Z,4.67
2019-03-31T10:25:36.785Z,4.97
2019-03-31T10:28:05.387Z,5.27
2019-03-31T10:30:38.562Z,5.07
2019-03-31T10:33:08.214Z,4.90
2019-03-31T10:35:37.584Z,4.50
2019-03-31T10:38:06.681Z,4.53
2019-03-31T10:40:35.121Z,4.67
2019-03-31T10:43:03.642Z,4.63
2019-03-31T10:45:32.147Z,4.50
2019-03-31T10:48:00.591Z,4.70
2019-03-31T10:50:29.113Z,4.83
2019-03-31T10:52:57.627Z,5.37
2019-03-31T10:55:26.212Z,4.63
2019-03-31T10:57:54.622Z,4.20
2019-03-31T11:00:37.518Z,4.37
2019-03-31T11:03:07.525Z,4.30
2019-03-31T11:05:36.184Z,4.73
2019-03-31T11:08:05.153Z,4.40
2019-03-31T11:10:33.881Z,5.37
2019-03-31T11:13:02.389Z,5.53
2019-03-31T11:15:30.930Z,5.70
2019-03-31T11:17:59.457Z,5.60
2019-03-31T11:20:27.874Z,5.77
2019-03-31T11:23:03.974Z,4.30
2019-03-31T11:25:32.468Z,5.20
2019-03-31T11:28:00.906Z,4.60
2019-03-31T11:30:29.381Z,5.23
2019-03-31T11:32:57.794Z,4.83
2019-03-31T11:35:26.250Z,4.47
2019-03-31T11:37:54.780Z,4.63
2019-03-31T11:40:23.283Z,4.70
2019-03-31T11:42:51.745Z,3.87
2019-03-31T11:45:20.281Z,4.03
2019-03-31T11:47:48.703Z,4.07
2019-03-31T11:50:17.798Z,3.47
2019-03-31T11:52:46.252Z,3.07
2019-03-31T11:55:14.759Z,2.97
2019-03-31T11:57:43.469Z,3.43
2019-03-31T12:00:17.153Z,3.70
2019-03-31T12:02:45.591Z,3.13
2019-03-31T12:05:15.200Z,3.07
2019-03-31T12:07:47.007Z,3.70
2019-03-31T12:10:13.943Z,3.00
2019-03-31T12:12:42.437Z,3.30
2019-03-31T12:15:11.440Z,3.37
2019-03-31T12:17:39.883Z,2.87
2019-03-31T12:20:11.263Z,2.57
2019-03-31T12:22:39.738Z,3.53
2019-03-31T12:25:09.225Z,2.83
2019-03-31T12:27:37.687Z,3.33
2019-03-31T12:30:10.330Z,3.00
2019-03-31T12:32:39.029Z,3.23
2019-03-31T12:35:09.029Z,3.30
2019-03-31T12:37:42.682Z,3.20
2019-03-31T12:40:10.392Z,2.70
2019-03-31T12:42:38.834Z,2.50
2019-03-31T12:45:08.039Z,2.33
2019-03-31T12:47:36.518Z,2.53
2019-03-31T12:50:06.823Z,2.90
2019-03-31T12:52:46.199Z,2.83
2019-03-31T12:55:06.401Z,3.20
2019-03-31T12:57:36.381Z,3.17
2019-03-31T13:00:07.355Z,2.90
2019-03-31T13:02:35.798Z,2.87
2019-03-31T13:05:07.769Z,2.47
2019-03-31T13:07:36.213Z,2.83
2019-03-31T13:10:06.217Z,2.30
2019-03-31T13:12:35.078Z,2.73
2019-03-31T13:15:05.611Z,2.80
2019-03-31T13:17:34.083Z,2.40
2019-03-31T13:20:02.529Z,2.60
2019-03-31T13:22:30.999Z,2.27
2019-03-31T13:25:02.332Z,2.40
2019-03-31T13:27:29.662Z,2.90
2019-03-31T13:29:58.094Z,2.70
2019-03-31T13:32:26.568Z,2.50
2019-03-31T13:34:55.152Z,2.57
2019-03-31T13:37:23.719Z,2.03
2019-03-31T13:39:52.228Z,2.60
2019-03-31T13:42:20.644Z,1.97
2019-03-31T13:44:49.201Z,2.70
2019-03-31T13:47:17.657Z,2.10
2019-03-31T13:49:46.060Z,2.03
2019-03-31T13:52:14.602Z,2.07
2019-03-31T13:54:43.091Z,2.53
2019-03-31T13:57:13.762Z,2.43
2019-03-31T13:59:42.734Z,1.93
2019-03-31T14:02:11.228Z,2.20
2019-03-31T14:04:51.022Z,2.30
2019-03-31T14:07:10.219Z,2.27
2019-03-31T14:09:38.644Z,2.30
2019-03-31T14:12:07.151Z,2.73
2019-03-31T14:14:35.581Z,2.20
2019-03-31T14:17:04.054Z,2.53
2019-03-31T14:19:32.632Z,2.13
2019-03-31T14:22:01.086Z,2.20
2019-03-31T14:24:29.519Z,1.97
2019-03-31T14:26:57.970Z,2.20
2019-03-31T14:29:26.417Z,2.67
2019-03-31T14:31:54.835Z,2.10
2019-03-31T14:34:23.303Z,2.17
2019-03-31T14:36:51.799Z,2.60
2019-03-31T14:39:20.231Z,2.30
2019-03-31T14:41:48.671Z,2.10
2019-03-31T14:44:17.118Z,2.30
2019-03-31T14:46:45.630Z,2.30
2019-03-31T14:49:14.350Z,2.30
2019-03-31T14:51:42.829Z,2.60
2019-03-31T14:54:11.318Z,2.53
2019-03-31T14:56:39.758Z,2.77
2019-03-31T14:59:08.228Z,2.97
2019-03-31T15:01:36.689Z,3.10
2019-03-31T15:04:05.336Z,2.80
2019-03-31T15:06:33.806Z,2.77
2019-03-31T15:09:02.229Z,2.97
2019-03-31T15:11:31.434Z,2.50
2019-03-31T15:14:00.199Z,2.60
2019-03-31T15:16:30.671Z,2.90
2019-03-31T15:18:59.264Z,2.80
2019-03-31T15:21:27.873Z,2.10
2019-03-31T15:23:56.468Z,2.60
2019-03-31T15:26:24.951Z,2.40
2019-03-31T15:28:54.091Z,2.93
2019-03-31T15:31:22.892Z,2.60
2019-03-31T15:33:51.851Z,1.97
2019-03-31T15:36:20.431Z,2.63
2019-03-31T15:38:49.305Z,2.87
2019-03-31T15:41:21.355Z,2.83
2019-03-31T15:43:48.471Z,2.70
2019-03-31T15:46:19.094Z,2.77
2019-03-31T15:48:48.723Z,2.70
2019-03-31T15:51:18.878Z,3.27
2019-03-31T15:53:47.625Z,3.00
2019-03-31T15:56:16.247Z,2.73
2019-03-31T15:58:44.744Z,2.87
2019-03-31T16:01:16.891Z,2.27
2019-03-31T16:03:45.587Z,3.13
2019-03-31T16:06:14.198Z,3.03
2019-03-31T16:08:42.703Z,2.60
2019-03-31T16:11:11.382Z,3.00
2019-03-31T16:13:40.037Z,2.50
2019-03-31T16:16:08.517Z,2.50
2019-03-31T16:18:37.036Z,2.50
2019-03-31T16:21:05.474Z,2.80
2019-03-31T16:23:33.896Z,2.27
2019-03-31T16:26:02.339Z,1.90
2019-03-31T16:28:30.801Z,2.47
2019-03-31T16:30:59.628Z,2.10
2019-03-31T16:33:28.132Z,2.20
2019-03-31T16:35:56.806Z,2.10
2019-03-31T16:38:25.847Z,2.13
2019-03-31T16:40:55.688Z,2.40
2019-03-31T16:43:24.168Z,3.00
2019-03-31T16:45:52.851Z,2.70
2019-03-31T16:48:21.320Z,2.00
2019-03-31T16:50:49.929Z,1.90
2019-03-31T16:53:18.508Z,2.10
2019-03-31T16:55:47.023Z,1.90
2019-03-31T16:58:15.805Z,1.63
2019-03-31T17:00:44.897Z,2.00
2019-03-31T17:03:13.525Z,1.90
2019-03-31T17:05:42.140Z,1.63
2019-03-31T17:08:10.925Z,1.97
2019-03-31T17:10:39.463Z,1.63
2019-03-31T17:13:08.045Z,1.60
2019-03-31T17:15:36.587Z,1.80
2019-03-31T17:18:05.143Z,1.80
2019-03-31T17:20:33.651Z,1.83
2019-03-31T17:23:02.780Z,2.10
2019-03-31T17:25:31.545Z,1.93
2019-03-31T17:28:00.297Z,2.00
2019-03-31T17:30:28.726Z,1.70
2019-03-31T17:32:57.241Z,2.00
2019-03-31T17:35:25.693Z,1.70
2019-03-31T17:37:54.117Z,1.60
2019-03-31T17:40:22.743Z,1.83
2019-03-31T17:42:51.556Z,2.40
2019-03-31T17:45:20.091Z,1.53
2019-03-31T17:47:48.722Z,1.50
2019-03-31T17:50:17.242Z,3.00
2019-03-31T17:52:46.235Z,2.10
2019-03-31T17:55:15.426Z,1.77
2019-03-31T17:57:43.931Z,2.20
2019-03-31T18:00:13.314Z,1.60
2019-03-31T18:02:41.900Z,1.70
2019-03-31T18:05:10.691Z,2.23
2019-03-31T18:07:39.159Z,1.87
2019-03-31T18:10:19.914Z,2.00
2019-03-31T18:12:39.092Z,2.07
2019-03-31T18:15:08.453Z,1.70
2019-03-31T18:17:36.904Z,1.70
2019-03-31T18:20:07.085Z,1.70
2019-03-31T18:22:35.742Z,1.70
2019-03-31T18:25:07.112Z,1.83
2019-03-31T18:27:35.666Z,2.00
2019-03-31T18:30:05.457Z,2.37
2019-03-31T18:32:34.305Z,2.37
2019-03-31T18:35:02.747Z,1.80
2019-03-31T18:37:31.360Z,2.20
2019-03-31T18:40:00.077Z,1.60
2019-03-31T18:42:29.497Z,2.07
2019-03-31T18:44:57.943Z,2.10
2019-03-31T18:47:26.722Z,2.00
2019-03-31T18:49:55.731Z,2.13
2019-03-31T18:52:24.243Z,2.50
2019-03-31T18:55:00.727Z,1.90
2019-03-31T19:00:16.893Z,2.30
2019-03-31T19:02:56.086Z,2.20
2019-03-31T19:05:26.418Z,2.07
2019-03-31T19:08:12.854Z,2.13
2019-03-31T19:10:49.797Z,2.43
2019-03-31T19:13:24.551Z,2.20
2019-03-31T19:15:57.765Z,2.10
2019-03-31T19:18:44.003Z,1.87
2019-03-31T19:21:14.354Z,2.63
2019-03-31T19:23:56.512Z,2.57
2019-03-31T19:26:48.063Z,2.60
2019-03-31T19:29:17.324Z,2.67
2019-03-31T19:31:50.484Z,2.97
2019-03-31T19:34:26.649Z,3.40
2019-03-31T19:37:05.596Z,2.70
2019-03-31T19:39:45.338Z,2.80
2019-03-31T19:42:31.761Z,3.20
2019-03-31T19:45:02.108Z,2.67
2019-03-31T19:47:41.826Z,2.27
2019-03-31T19:50:18.592Z,1.97
2019-03-31T19:52:55.223Z,2.63
2019-03-31T19:55:40.572Z,2.83
2019-03-31T19:58:20.078Z,2.87
2019-03-31T20:00:50.297Z,2.03
2019-03-31T20:03:35.896Z,2.17
2019-03-31T20:06:06.773Z,2.80
2019-03-31T20:08:36.911Z,2.40
2019-03-31T20:11:23.430Z,2.47
2019-03-31T20:14:02.866Z,2.37
2019-03-31T20:16:33.280Z,2.50
2019-03-31T20:19:19.923Z,2.23
2019-03-31T20:22:08.031Z,2.27
2019-03-31T20:24:44.111Z,2.30
2019-03-31T20:27:19.883Z,2.47
2019-03-31T20:29:55.854Z,2.00
2019-03-31T20:32:35.137Z,2.40
2019-03-31T20:35:20.646Z,2.60
2019-03-31T20:37:57.130Z,2.27
2019-03-31T20:40:29.984Z,2.00
2019-03-31T20:43:00.190Z,2.00
2019-03-31T20:45:28.630Z,2.47
2019-03-31T20:47:57.067Z,2.37
2019-03-31T20:50:25.953Z,2.73
2019-03-31T20:52:54.850Z,2.93
2019-03-31T20:55:23.267Z,2.40
2019-03-31T20:57:51.877Z,2.90
2019-03-31T21:00:20.479Z,2.67
2019-03-31T21:02:50.357Z,2.73
2019-03-31T21:05:18.894Z,2.00
2019-03-31T21:07:47.891Z,2.30
2019-03-31T21:10:16.323Z,2.10
2019-03-31T21:12:44.785Z,2.77
2019-03-31T21:15:13.986Z,2.37
2019-03-31T21:17:42.716Z,2.30
2019-03-31T21:20:11.506Z,2.27
2019-03-31T21:22:40.049Z,2.33
2019-03-31T21:25:08.819Z,2.70
2019-03-31T21:27:37.619Z,2.60
2019-03-31T21:30:07.811Z,2.30
2019-03-31T21:32:36.322Z,2.27
2019-03-31T21:35:07.688Z,2.63
2019-03-31T21:37:36.363Z,3.07
2019-03-31T21:40:07.513Z,3.37
2019-03-31T21:42:37.035Z,2.57
2019-03-31T21:45:07.234Z,2.20
2019-03-31T21:47:35.646Z,2.10
2019-03-31T21:50:06.287Z,2.40
2019-03-31T21:52:34.742Z,2.37
2019-03-31T21:55:04.355Z,2.23
2019-03-31T21:57:32.892Z,2.67
2019-03-31T22:00:01.340Z,2.10
2019-03-31T22:02:29.758Z,2.20
2019-03-31T22:04:58.197Z,2.33
2019-03-31T22:07:26.631Z,2.00
2019-03-31T22:09:55.049Z,2.23
2019-03-31T22:12:23.503Z,2.47
2019-03-31T22:14:51.943Z,2.47
2019-03-31T22:17:20.780Z,2.57
2019-03-31T22:19:49.218Z,2.33
2019-03-31T22:22:17.821Z,2.50
2019-03-31T22:24:46.579Z,2.10
2019-03-31T22:27:15.054Z,2.83
2019-03-31T22:29:44.036Z,2.33
2019-03-31T22:32:13.223Z,2.50
2019-03-31T22:34:43.926Z,2.10
2019-03-31T22:37:13.489Z,2.60
2019-03-31T22:39:42.259Z,2.40
2019-03-31T22:42:10.940Z,2.50
2019-03-31T22:44:39.685Z,2.23
2019-03-31T22:47:08.240Z,2.20
2019-03-31T22:49:37.082Z,2.80
2019-03-31T22:52:06.110Z,2.80
2019-03-31T22:54:35.095Z,2.73
2019-03-31T22:57:03.556Z,2.20
2019-03-31T22:59:32.304Z,1.93
2019-03-31T23:02:00.841Z,2.47
2019-03-31T23:04:29.584Z,2.60
2019-03-31T23:06:59.818Z,2.40
2019-03-31T23:09:29.869Z,2.50
2019-03-31T23:11:58.920Z,2.40
2019-03-31T23:14:27.362Z,2.40
2019-03-31T23:16:56.985Z,2.40
2019-03-31T23:19:26.047Z,2.07
2019-03-31T23:21:54.502Z,2.40
2019-03-31T23:24:23.619Z,2.53
2019-03-31T23:26:52.746Z,2.10
2019-03-31T23:29:21.255Z,2.30
2019-03-31T23:31:49.681Z,2.07
2019-03-31T23:34:18.464Z,2.27
2019-03-31T23:36:47.319Z,2.27
2019-03-31T23:39:15.804Z,2.63
2019-03-31T23:41:44.236Z,2.40
2019-03-31T23:44:13.250Z,2.20
2019-03-31T23:46:41.866Z,2.27
2019-03-31T23:49:10.567Z,2.30
2019-03-31T23:51:39.622Z,2.40
2019-03-31T23:54:08.767Z,2.93
2019-03-31T23:56:37.241Z,2.50
2019-03-31T23:59:05.753Z,2.47
